sensor_id;sensor_type;location;lat;lon;timestamp;temperature;humidity
8684;DHT22;4379;59.744;18.206;2023-12-07T00:02:07;-9.60;99.90
8684;DHT22;4379;59.744;18.206;2023-12-07T00:04:34;-9.60;99.90
8684;DHT22;4379;59.744;18.206;2023-12-07T00:07:01;-9.60;99.90
8684;DHT22;4379;59.744;18.206;2023-12-07T00:09:28;-9.70;99.90
8684;DHT22;4379;59.744;18.206;2023-12-07T00:11:55;-9.60;99.90
8684;DHT22;4379;59.744;18.206;2023-12-07T00:14:23;-9.80;99.90
8684;DHT22;4379;59.744;18.206;2023-12-07T00:16:50;-9.80;99.90
8684;DHT22;4379;59.744;18.206;2023-12-07T00:19:17;-9.70;99.90
8684;DHT22;4379;59.744;18.206;2023-12-07T00:21:44;-9.60;99.90
8684;DHT22;4379;59.744;18.206;2023-12-07T00:24:11;-9.60;99.90
8684;DHT22;4379;59.744;18.206;2023-12-07T00:26:38;-9.60;99.90
8684;DHT22;4379;59.744;18.206;2023-12-07T00:29:06;-9.60;99.90
8684;DHT22;4379;59.744;18.206;2023-12-07T00:31:33;-9.60;99.90
8684;DHT22;4379;59.744;18.206;2023-12-07T00:34:01;-9.50;99.90
8684;DHT22;4379;59.744;18.206;2023-12-07T00:36:28;-9.50;99.90
8684;DHT22;4379;59.744;18.206;2023-12-07T00:38:55;-9.50;99.90
8684;DHT22;4379;59.744;18.206;2023-12-07T00:41:22;-9.60;99.90
8684;DHT22;4379;59.744;18.206;2023-12-07T00:43:49;-9.60;99.90
8684;DHT22;4379;59.744;18.206;2023-12-07T00:46:16;-9.40;99.90
8684;DHT22;4379;59.744;18.206;2023-12-07T00:48:43;-9.50;99.90
8684;DHT22;4379;59.744;18.206;2023-12-07T00:51:10;-9.40;99.90
8684;DHT22;4379;59.744;18.206;2023-12-07T00:53:38;-9.50;99.90
8684;DHT22;4379;59.744;18.206;2023-12-07T00:56:06;-9.50;99.90
8684;DHT22;4379;59.744;18.206;2023-12-07T00:58:33;-9.30;99.90
8684;DHT22;4379;59.744;18.206;2023-12-07T01:01:01;-9.20;99.90
8684;DHT22;4379;59.744;18.206;2023-12-07T01:03:28;-9.10;99.90
8684;DHT22;4379;59.744;18.206;2023-12-07T01:05:55;-9.20;99.90
8684;DHT22;4379;59.744;18.206;2023-12-07T01:08:22;-9.20;99.90
8684;DHT22;4379;59.744;18.206;2023-12-07T01:10:49;-9.40;99.90
8684;DHT22;4379;59.744;18.206;2023-12-07T01:13:16;-9.50;99.90
8684;DHT22;4379;59.744;18.206;2023-12-07T01:15:43;-9.50;99.90
8684;DHT22;4379;59.744;18.206;2023-12-07T01:18:11;-9.20;99.90
8684;DHT22;4379;59.744;18.206;2023-12-07T01:20:38;-9.20;99.90
8684;DHT22;4379;59.744;18.206;2023-12-07T01:23:05;-9.30;99.90
8684;DHT22;4379;59.744;18.206;2023-12-07T01:25:32;-9.30;99.90
8684;DHT22;4379;59.744;18.206;2023-12-07T01:28:00;-9.20;99.90
8684;DHT22;4379;59.744;18.206;2023-12-07T01:30:27;-9.40;99.90
8684;DHT22;4379;59.744;18.206;2023-12-07T01:32:55;-9.40;99.90
8684;DHT22;4379;59.744;18.206;2023-12-07T01:35:22;-9.50;99.90
8684;DHT22;4379;59.744;18.206;2023-12-07T01:37:49;-9.50;99.90
8684;DHT22;4379;59.744;18.206;2023-12-07T01:40:16;-9.40;99.90
8684;DHT22;4379;59.744;18.206;2023-12-07T01:42:51;-9.20;99.90
8684;DHT22;4379;59.744;18.206;2023-12-07T01:45:19;-9.20;99.90
8684;DHT22;4379;59.744;18.206;2023-12-07T01:47:50;-9.30;99.90
8684;DHT22;4379;59.744;18.206;2023-12-07T01:50:19;-9.10;99.90
8684;DHT22;4379;59.744;18.206;2023-12-07T01:52:54;-9.10;99.90
8684;DHT22;4379;59.744;18.206;2023-12-07T01:55:24;-9.10;99.90
8684;DHT22;4379;59.744;18.206;2023-12-07T01:57:51;-9.20;99.90
8684;DHT22;4379;59.744;18.206;2023-12-07T02:00:19;-9.10;99.90
8684;DHT22;4379;59.744;18.206;2023-12-07T02:02:47;-8.90;99.90
8684;DHT22;4379;59.744;18.206;2023-12-07T02:05:15;-8.90;99.90
8684;DHT22;4379;59.744;18.206;2023-12-07T02:07:43;-8.90;99.90
8684;DHT22;4379;59.744;18.206;2023-12-07T02:10:11;-8.80;99.90
8684;DHT22;4379;59.744;18.206;2023-12-07T02:12:40;-8.60;99.90
8684;DHT22;4379;59.744;18.206;2023-12-07T02:15:07;-8.60;99.90
8684;DHT22;4379;59.744;18.206;2023-12-07T02:18:25;-8.50;99.90
8684;DHT22;4379;59.744;18.206;2023-12-07T02:20:27;-8.40;99.90
8684;DHT22;4379;59.744;18.206;2023-12-07T02:22:56;-8.10;99.90
8684;DHT22;4379;59.744;18.206;2023-12-07T02:28:29;-8.40;99.90
8684;DHT22;4379;59.744;18.206;2023-12-07T02:30:56;-8.50;99.90
8684;DHT22;4379;59.744;18.206;2023-12-07T02:33:24;-8.50;99.90
8684;DHT22;4379;59.744;18.206;2023-12-07T02:35:51;-8.50;99.90
8684;DHT22;4379;59.744;18.206;2023-12-07T02:38:18;-8.50;99.90
8684;DHT22;4379;59.744;18.206;2023-12-07T02:40:48;-8.40;99.90
8684;DHT22;4379;59.744;18.206;2023-12-07T02:43:15;-8.40;99.90
8684;DHT22;4379;59.744;18.206;2023-12-07T02:45:43;-8.20;99.90
8684;DHT22;4379;59.744;18.206;2023-12-07T02:48:10;-8.30;99.90
8684;DHT22;4379;59.744;18.206;2023-12-07T02:50:37;-8.40;99.90
8684;DHT22;4379;59.744;18.206;2023-12-07T02:53:04;-8.40;99.90
8684;DHT22;4379;59.744;18.206;2023-12-07T02:55:32;-8.60;99.90
8684;DHT22;4379;59.744;18.206;2023-12-07T02:57:59;-8.50;99.90
8684;DHT22;4379;59.744;18.206;2023-12-07T03:00:27;-8.60;99.90
8684;DHT22;4379;59.744;18.206;2023-12-07T03:02:54;-8.40;99.90
8684;DHT22;4379;59.744;18.206;2023-12-07T03:05:21;-8.40;99.90
8684;DHT22;4379;59.744;18.206;2023-12-07T03:07:50;-8.40;99.90
8684;DHT22;4379;59.744;18.206;2023-12-07T03:10:17;-8.40;99.90
8684;DHT22;4379;59.744;18.206;2023-12-07T03:12:44;-8.30;99.90
8684;DHT22;4379;59.744;18.206;2023-12-07T03:15:11;-8.20;99.90
8684;DHT22;4379;59.744;18.206;2023-12-07T03:17:40;-8.10;99.90
8684;DHT22;4379;59.744;18.206;2023-12-07T03:20:07;-8.00;99.90
8684;DHT22;4379;59.744;18.206;2023-12-07T03:22:35;-8.20;99.90
8684;DHT22;4379;59.744;18.206;2023-12-07T03:25:03;-8.40;99.90
8684;DHT22;4379;59.744;18.206;2023-12-07T03:27:30;-8.40;99.90
8684;DHT22;4379;59.744;18.206;2023-12-07T03:29:58;-8.40;99.90
8684;DHT22;4379;59.744;18.206;2023-12-07T03:32:25;-8.40;99.90
8684;DHT22;4379;59.744;18.206;2023-12-07T03:34:52;-8.40;99.90
8684;DHT22;4379;59.744;18.206;2023-12-07T03:37:19;-8.30;99.90
8684;DHT22;4379;59.744;18.206;2023-12-07T03:39:46;-8.20;99.90
8684;DHT22;4379;59.744;18.206;2023-12-07T03:42:14;-8.20;99.90
8684;DHT22;4379;59.744;18.206;2023-12-07T03:45:01;-8.10;99.90
8684;DHT22;4379;59.744;18.206;2023-12-07T03:47:28;-8.00;99.90
8684;DHT22;4379;59.744;18.206;2023-12-07T03:49:55;-8.10;99.90
8684;DHT22;4379;59.744;18.206;2023-12-07T03:52:22;-8.20;99.90
8684;DHT22;4379;59.744;18.206;2023-12-07T03:54:50;-8.20;99.90
8684;DHT22;4379;59.744;18.206;2023-12-07T03:57:17;-8.10;99.90
8684;DHT22;4379;59.744;18.206;2023-12-07T03:59:44;-8.20;99.90
8684;DHT22;4379;59.744;18.206;2023-12-07T04:02:12;-8.10;99.90
8684;DHT22;4379;59.744;18.206;2023-12-07T04:04:39;-8.10;99.90
8684;DHT22;4379;59.744;18.206;2023-12-07T04:07:06;-8.20;99.90
8684;DHT22;4379;59.744;18.206;2023-12-07T04:09:34;-8.20;99.90
8684;DHT22;4379;59.744;18.206;2023-12-07T04:12:01;-8.20;99.90
8684;DHT22;4379;59.744;18.206;2023-12-07T04:14:28;-8.20;99.90
8684;DHT22;4379;59.744;18.206;2023-12-07T04:16:55;-8.20;99.90
8684;DHT22;4379;59.744;18.206;2023-12-07T04:19:22;-8.20;99.90
8684;DHT22;4379;59.744;18.206;2023-12-07T04:21:49;-8.10;99.90
8684;DHT22;4379;59.744;18.206;2023-12-07T04:24:16;-8.00;99.90
8684;DHT22;4379;59.744;18.206;2023-12-07T04:26:44;-8.00;99.90
8684;DHT22;4379;59.744;18.206;2023-12-07T04:29:11;-7.90;99.90
8684;DHT22;4379;59.744;18.206;2023-12-07T04:31:38;-7.90;99.90
8684;DHT22;4379;59.744;18.206;2023-12-07T04:34:05;-8.10;99.90
8684;DHT22;4379;59.744;18.206;2023-12-07T04:36:32;-8.00;99.90
8684;DHT22;4379;59.744;18.206;2023-12-07T04:38:59;-8.00;99.90
8684;DHT22;4379;59.744;18.206;2023-12-07T04:41:26;-7.90;99.90
8684;DHT22;4379;59.744;18.206;2023-12-07T04:43:53;-7.90;99.90
8684;DHT22;4379;59.744;18.206;2023-12-07T04:46:20;-8.00;99.90
8684;DHT22;4379;59.744;18.206;2023-12-07T04:48:47;-8.10;99.90
8684;DHT22;4379;59.744;18.206;2023-12-07T04:51:15;-8.10;99.90
8684;DHT22;4379;59.744;18.206;2023-12-07T04:53:42;-8.10;99.90
8684;DHT22;4379;59.744;18.206;2023-12-07T04:56:09;-8.20;99.90
8684;DHT22;4379;59.744;18.206;2023-12-07T04:58:36;-8.20;99.90
8684;DHT22;4379;59.744;18.206;2023-12-07T05:01:03;-8.10;99.90
8684;DHT22;4379;59.744;18.206;2023-12-07T05:03:31;-8.10;99.90
8684;DHT22;4379;59.744;18.206;2023-12-07T05:05:59;-8.10;99.90
8684;DHT22;4379;59.744;18.206;2023-12-07T05:08:26;-8.20;99.90
8684;DHT22;4379;59.744;18.206;2023-12-07T05:10:53;-8.20;99.90
8684;DHT22;4379;59.744;18.206;2023-12-07T05:13:20;-8.30;99.90
8684;DHT22;4379;59.744;18.206;2023-12-07T05:15:47;-8.30;99.90
8684;DHT22;4379;59.744;18.206;2023-12-07T05:18:15;-8.30;99.90
8684;DHT22;4379;59.744;18.206;2023-12-07T05:20:42;-8.10;99.90
8684;DHT22;4379;59.744;18.206;2023-12-07T05:23:10;-8.10;99.90
8684;DHT22;4379;59.744;18.206;2023-12-07T05:25:37;-8.10;99.90
8684;DHT22;4379;59.744;18.206;2023-12-07T05:28:04;-8.20;99.90
8684;DHT22;4379;59.744;18.206;2023-12-07T05:30:31;-8.30;99.90
8684;DHT22;4379;59.744;18.206;2023-12-07T05:32:59;-8.40;99.90
8684;DHT22;4379;59.744;18.206;2023-12-07T05:35:26;-8.20;99.90
8684;DHT22;4379;59.744;18.206;2023-12-07T05:37:53;-8.30;99.90
8684;DHT22;4379;59.744;18.206;2023-12-07T05:40:20;-8.30;99.90
8684;DHT22;4379;59.744;18.206;2023-12-07T05:42:49;-8.20;99.90
8684;DHT22;4379;59.744;18.206;2023-12-07T05:45:17;-8.20;99.90
8684;DHT22;4379;59.744;18.206;2023-12-07T05:47:44;-8.20;99.90
8684;DHT22;4379;59.744;18.206;2023-12-07T05:50:12;-8.40;99.90
8684;DHT22;4379;59.744;18.206;2023-12-07T05:52:39;-8.40;99.90
8684;DHT22;4379;59.744;18.206;2023-12-07T05:55:06;-8.40;99.90
8684;DHT22;4379;59.744;18.206;2023-12-07T05:57:34;-8.30;99.90
8684;DHT22;4379;59.744;18.206;2023-12-07T06:00:03;-8.40;99.90
8684;DHT22;4379;59.744;18.206;2023-12-07T06:02:32;-8.30;99.90
8684;DHT22;4379;59.744;18.206;2023-12-07T06:04:59;-8.30;99.90
8684;DHT22;4379;59.744;18.206;2023-12-07T06:07:26;-8.20;99.90
8684;DHT22;4379;59.744;18.206;2023-12-07T06:09:54;-8.20;99.90
8684;DHT22;4379;59.744;18.206;2023-12-07T06:12:21;-8.20;99.90
8684;DHT22;4379;59.744;18.206;2023-12-07T06:14:49;-8.10;99.90
8684;DHT22;4379;59.744;18.206;2023-12-07T06:17:16;-8.10;99.90
8684;DHT22;4379;59.744;18.206;2023-12-07T06:19:43;-8.00;99.90
8684;DHT22;4379;59.744;18.206;2023-12-07T06:22:11;-7.90;99.90
8684;DHT22;4379;59.744;18.206;2023-12-07T06:24:40;-7.80;99.90
8684;DHT22;4379;59.744;18.206;2023-12-07T06:27:07;-7.80;99.90
8684;DHT22;4379;59.744;18.206;2023-12-07T06:29:34;-7.80;99.90
8684;DHT22;4379;59.744;18.206;2023-12-07T06:32:02;-7.70;99.90
8684;DHT22;4379;59.744;18.206;2023-12-07T06:34:29;-7.70;99.90
8684;DHT22;4379;59.744;18.206;2023-12-07T06:36:59;-7.70;99.90
8684;DHT22;4379;59.744;18.206;2023-12-07T06:39:26;-7.50;99.90
8684;DHT22;4379;59.744;18.206;2023-12-07T06:41:56;-7.60;99.90
8684;DHT22;4379;59.744;18.206;2023-12-07T06:44:23;-7.50;99.90
8684;DHT22;4379;59.744;18.206;2023-12-07T06:46:50;-7.50;99.90
8684;DHT22;4379;59.744;18.206;2023-12-07T06:49:17;-7.50;99.90
8684;DHT22;4379;59.744;18.206;2023-12-07T06:51:46;-7.50;99.90
8684;DHT22;4379;59.744;18.206;2023-12-07T06:54:13;-7.50;99.90
8684;DHT22;4379;59.744;18.206;2023-12-07T06:56:40;-7.50;99.90
8684;DHT22;4379;59.744;18.206;2023-12-07T06:59:07;-7.50;99.90
8684;DHT22;4379;59.744;18.206;2023-12-07T07:01:34;-7.40;99.90
8684;DHT22;4379;59.744;18.206;2023-12-07T07:04:01;-7.40;99.90
8684;DHT22;4379;59.744;18.206;2023-12-07T07:06:28;-7.40;99.90
8684;DHT22;4379;59.744;18.206;2023-12-07T07:08:57;-7.40;99.90
8684;DHT22;4379;59.744;18.206;2023-12-07T07:11:26;-7.40;99.90
8684;DHT22;4379;59.744;18.206;2023-12-07T07:13:55;-7.30;99.90
8684;DHT22;4379;59.744;18.206;2023-12-07T07:16:22;-7.20;99.90
8684;DHT22;4379;59.744;18.206;2023-12-07T07:18:49;-7.10;99.90
8684;DHT22;4379;59.744;18.206;2023-12-07T07:21:16;-7.10;99.90
8684;DHT22;4379;59.744;18.206;2023-12-07T07:23:43;-7.00;99.90
8684;DHT22;4379;59.744;18.206;2023-12-07T07:26:10;-6.80;99.90
8684;DHT22;4379;59.744;18.206;2023-12-07T07:28:37;-6.60;99.90
8684;DHT22;4379;59.744;18.206;2023-12-07T07:31:05;-6.70;99.90
8684;DHT22;4379;59.744;18.206;2023-12-07T07:33:32;-6.80;99.90
8684;DHT22;4379;59.744;18.206;2023-12-07T07:35:59;-6.80;99.90
8684;DHT22;4379;59.744;18.206;2023-12-07T07:38:27;-6.90;99.90
8684;DHT22;4379;59.744;18.206;2023-12-07T07:40:54;-6.90;99.90
8684;DHT22;4379;59.744;18.206;2023-12-07T07:43:21;-6.90;99.90
8684;DHT22;4379;59.744;18.206;2023-12-07T07:45:49;-6.90;99.90
8684;DHT22;4379;59.744;18.206;2023-12-07T07:48:16;-6.80;99.90
8684;DHT22;4379;59.744;18.206;2023-12-07T07:50:43;-6.80;99.90
8684;DHT22;4379;59.744;18.206;2023-12-07T07:53:10;-6.70;99.90
8684;DHT22;4379;59.744;18.206;2023-12-07T07:55:37;-6.70;99.90
8684;DHT22;4379;59.744;18.206;2023-12-07T07:58:04;-6.70;99.90
8684;DHT22;4379;59.744;18.206;2023-12-07T08:00:32;-6.50;99.90
8684;DHT22;4379;59.744;18.206;2023-12-07T08:03:00;-6.40;99.90
8684;DHT22;4379;59.744;18.206;2023-12-07T08:05:27;-6.20;99.90
8684;DHT22;4379;59.744;18.206;2023-12-07T08:07:54;-6.30;99.90
8684;DHT22;4379;59.744;18.206;2023-12-07T08:10:21;-6.30;99.90
8684;DHT22;4379;59.744;18.206;2023-12-07T08:12:48;-6.40;99.90
8684;DHT22;4379;59.744;18.206;2023-12-07T08:15:15;-6.40;99.90
8684;DHT22;4379;59.744;18.206;2023-12-07T08:17:42;-6.30;99.90
8684;DHT22;4379;59.744;18.206;2023-12-07T08:20:10;-6.40;99.90
8684;DHT22;4379;59.744;18.206;2023-12-07T08:22:38;-6.30;99.90
8684;DHT22;4379;59.744;18.206;2023-12-07T08:25:06;-6.30;99.90
8684;DHT22;4379;59.744;18.206;2023-12-07T08:27:38;-6.30;99.90
8684;DHT22;4379;59.744;18.206;2023-12-07T08:30:06;-6.20;99.90
8684;DHT22;4379;59.744;18.206;2023-12-07T08:32:36;-6.30;99.90
8684;DHT22;4379;59.744;18.206;2023-12-07T08:35:04;-6.20;99.90
8684;DHT22;4379;59.744;18.206;2023-12-07T08:37:33;-6.10;99.90
8684;DHT22;4379;59.744;18.206;2023-12-07T08:40:00;-6.00;99.90
8684;DHT22;4379;59.744;18.206;2023-12-07T08:42:27;-6.00;99.90
8684;DHT22;4379;59.744;18.206;2023-12-07T08:44:54;-5.90;99.90
8684;DHT22;4379;59.744;18.206;2023-12-07T08:47:21;-5.90;99.90
8684;DHT22;4379;59.744;18.206;2023-12-07T08:49:49;-5.90;99.90
8684;DHT22;4379;59.744;18.206;2023-12-07T08:52:18;-5.90;99.90
8684;DHT22;4379;59.744;18.206;2023-12-07T08:55:01;-5.80;99.90
8684;DHT22;4379;59.744;18.206;2023-12-07T08:57:28;-5.80;99.90
8684;DHT22;4379;59.744;18.206;2023-12-07T08:59:55;-5.70;99.90
8684;DHT22;4379;59.744;18.206;2023-12-07T09:02:22;-5.70;99.90
8684;DHT22;4379;59.744;18.206;2023-12-07T09:05:04;-5.50;99.90
8684;DHT22;4379;59.744;18.206;2023-12-07T09:07:31;-5.50;99.90
8684;DHT22;4379;59.744;18.206;2023-12-07T09:09:58;-5.50;99.90
8684;DHT22;4379;59.744;18.206;2023-12-07T09:12:25;-5.30;99.90
8684;DHT22;4379;59.744;18.206;2023-12-07T09:15:04;-5.30;99.90
8684;DHT22;4379;59.744;18.206;2023-12-07T09:17:33;-5.30;99.90
8684;DHT22;4379;59.744;18.206;2023-12-07T09:20:00;-5.30;99.90
8684;DHT22;4379;59.744;18.206;2023-12-07T09:22:28;-5.40;99.90
8684;DHT22;4379;59.744;18.206;2023-12-07T09:25:04;-5.40;99.90
8684;DHT22;4379;59.744;18.206;2023-12-07T09:27:32;-5.40;99.90
8684;DHT22;4379;59.744;18.206;2023-12-07T09:30:01;-5.40;99.90
8684;DHT22;4379;59.744;18.206;2023-12-07T09:32:28;-5.30;99.90
8684;DHT22;4379;59.744;18.206;2023-12-07T09:35:04;-5.20;99.90
8684;DHT22;4379;59.744;18.206;2023-12-07T09:37:32;-5.10;99.90
8684;DHT22;4379;59.744;18.206;2023-12-07T09:40:00;-5.10;99.90
8684;DHT22;4379;59.744;18.206;2023-12-07T09:42:28;-5.00;99.90
8684;DHT22;4379;59.744;18.206;2023-12-07T09:45:03;-5.00;99.90
8684;DHT22;4379;59.744;18.206;2023-12-07T09:47:34;-4.90;99.90
8684;DHT22;4379;59.744;18.206;2023-12-07T09:50:07;-5.00;99.90
8684;DHT22;4379;59.744;18.206;2023-12-07T09:52:39;-5.00;99.90
8684;DHT22;4379;59.744;18.206;2023-12-07T09:55:11;-4.90;99.90
8684;DHT22;4379;59.744;18.206;2023-12-07T09:57:40;-4.80;99.90
8684;DHT22;4379;59.744;18.206;2023-12-07T10:00:07;-4.90;99.90
8684;DHT22;4379;59.744;18.206;2023-12-07T10:02:37;-4.90;99.90
8684;DHT22;4379;59.744;18.206;2023-12-07T10:05:09;-4.90;99.90
8684;DHT22;4379;59.744;18.206;2023-12-07T10:07:40;-4.90;99.90
8684;DHT22;4379;59.744;18.206;2023-12-07T10:10:08;-4.80;99.90
8684;DHT22;4379;59.744;18.206;2023-12-07T10:15:17;-4.80;99.90
8684;DHT22;4379;59.744;18.206;2023-12-07T10:17:53;-4.70;99.90
8684;DHT22;4379;59.744;18.206;2023-12-07T10:20:22;-4.70;99.90
8684;DHT22;4379;59.744;18.206;2023-12-07T10:23:04;-4.70;99.90
8684;DHT22;4379;59.744;18.206;2023-12-07T10:25:37;-4.70;99.90
8684;DHT22;4379;59.744;18.206;2023-12-07T10:28:05;-4.60;99.90
8684;DHT22;4379;59.744;18.206;2023-12-07T10:30:36;-4.50;99.90
8684;DHT22;4379;59.744;18.206;2023-12-07T10:33:07;-4.40;99.90
8684;DHT22;4379;59.744;18.206;2023-12-07T10:35:42;-4.30;99.90
8684;DHT22;4379;59.744;18.206;2023-12-07T10:38:10;-4.30;99.90
8684;DHT22;4379;59.744;18.206;2023-12-07T10:40:38;-4.30;99.90
8684;DHT22;4379;59.744;18.206;2023-12-07T10:43:07;-4.30;99.90
8684;DHT22;4379;59.744;18.206;2023-12-07T10:45:36;-4.30;99.90
8684;DHT22;4379;59.744;18.206;2023-12-07T10:48:07;-4.40;99.90
8684;DHT22;4379;59.744;18.206;2023-12-07T10:50:37;-4.40;99.90
8684;DHT22;4379;59.744;18.206;2023-12-07T10:53:33;-4.40;99.90
8684;DHT22;4379;59.744;18.206;2023-12-07T10:56:00;-4.40;99.90
8684;DHT22;4379;59.744;18.206;2023-12-07T10:58:28;-4.40;99.90
8684;DHT22;4379;59.744;18.206;2023-12-07T11:00:56;-4.40;99.90
8684;DHT22;4379;59.744;18.206;2023-12-07T11:03:25;-4.40;99.90
8684;DHT22;4379;59.744;18.206;2023-12-07T11:05:53;-4.40;99.90
8684;DHT22;4379;59.744;18.206;2023-12-07T11:08:29;-4.30;99.90
8684;DHT22;4379;59.744;18.206;2023-12-07T11:11:02;-4.20;99.90
8684;DHT22;4379;59.744;18.206;2023-12-07T11:13:35;-4.20;99.90
8684;DHT22;4379;59.744;18.206;2023-12-07T11:16:04;-4.10;99.90
8684;DHT22;4379;59.744;18.206;2023-12-07T11:18:32;-4.00;99.90
8684;DHT22;4379;59.744;18.206;2023-12-07T11:21:00;-3.90;99.90
8684;DHT22;4379;59.744;18.206;2023-12-07T11:23:28;-3.90;99.90
8684;DHT22;4379;59.744;18.206;2023-12-07T11:25:56;-3.80;99.90
8684;DHT22;4379;59.744;18.206;2023-12-07T11:28:37;-3.80;99.90
8684;DHT22;4379;59.744;18.206;2023-12-07T11:31:09;-3.70;99.90
8684;DHT22;4379;59.744;18.206;2023-12-07T11:33:39;-3.80;99.90
8684;DHT22;4379;59.744;18.206;2023-12-07T11:36:10;-3.70;99.90
8684;DHT22;4379;59.744;18.206;2023-12-07T11:41:51;-3.80;99.90
8684;DHT22;4379;59.744;18.206;2023-12-07T11:44:24;-3.80;99.90
8684;DHT22;4379;59.744;18.206;2023-12-07T11:46:51;-3.90;99.90
8684;DHT22;4379;59.744;18.206;2023-12-07T11:49:21;-3.90;99.90
8684;DHT22;4379;59.744;18.206;2023-12-07T11:52:15;-3.90;99.90
8684;DHT22;4379;59.744;18.206;2023-12-07T11:54:47;-3.90;99.90
8684;DHT22;4379;59.744;18.206;2023-12-07T11:57:15;-3.90;99.90
8684;DHT22;4379;59.744;18.206;2023-12-07T11:59:46;-3.70;99.90
8684;DHT22;4379;59.744;18.206;2023-12-07T12:02:15;-3.70;99.90
8684;DHT22;4379;59.744;18.206;2023-12-07T12:04:43;-3.70;99.90
8684;DHT22;4379;59.744;18.206;2023-12-07T12:07:11;-3.70;99.90
8684;DHT22;4379;59.744;18.206;2023-12-07T12:09:39;-3.70;99.90
8684;DHT22;4379;59.744;18.206;2023-12-07T12:12:07;-3.70;99.90
8684;DHT22;4379;59.744;18.206;2023-12-07T12:14:34;-3.70;99.90
8684;DHT22;4379;59.744;18.206;2023-12-07T12:17:01;-3.70;99.90
8684;DHT22;4379;59.744;18.206;2023-12-07T12:19:28;-3.60;99.90
8684;DHT22;4379;59.744;18.206;2023-12-07T12:22:04;-3.60;99.90
8684;DHT22;4379;59.744;18.206;2023-12-07T12:24:35;-3.50;99.90
8684;DHT22;4379;59.744;18.206;2023-12-07T12:27:04;-3.50;99.90
8684;DHT22;4379;59.744;18.206;2023-12-07T12:29:33;-3.50;99.90
8684;DHT22;4379;59.744;18.206;2023-12-07T12:32:02;-3.40;99.90
8684;DHT22;4379;59.744;18.206;2023-12-07T12:34:32;-3.30;99.90
8684;DHT22;4379;59.744;18.206;2023-12-07T12:37:01;-3.30;99.90
8684;DHT22;4379;59.744;18.206;2023-12-07T12:39:29;-3.10;99.90
8684;DHT22;4379;59.744;18.206;2023-12-07T12:42:01;-3.00;99.90
8684;DHT22;4379;59.744;18.206;2023-12-07T12:44:30;-2.90;99.90
8684;DHT22;4379;59.744;18.206;2023-12-07T12:47:11;-3.10;99.90
8684;DHT22;4379;59.744;18.206;2023-12-07T12:49:39;-3.00;99.90
8684;DHT22;4379;59.744;18.206;2023-12-07T12:52:10;-3.10;99.90
8684;DHT22;4379;59.744;18.206;2023-12-07T12:54:42;-3.10;99.90
8684;DHT22;4379;59.744;18.206;2023-12-07T12:57:10;-3.10;99.90
8684;DHT22;4379;59.744;18.206;2023-12-07T12:59:37;-3.10;99.90
8684;DHT22;4379;59.744;18.206;2023-12-07T13:02:04;-3.20;99.90
8684;DHT22;4379;59.744;18.206;2023-12-07T13:04:32;-3.20;99.90
8684;DHT22;4379;59.744;18.206;2023-12-07T13:07:03;-3.20;99.90
8684;DHT22;4379;59.744;18.206;2023-12-07T13:09:31;-3.20;99.90
8684;DHT22;4379;59.744;18.206;2023-12-07T13:11:59;-3.20;99.90
8684;DHT22;4379;59.744;18.206;2023-12-07T13:14:31;-3.10;99.90
8684;DHT22;4379;59.744;18.206;2023-12-07T13:16:59;-3.10;99.90
8684;DHT22;4379;59.744;18.206;2023-12-07T13:19:26;-3.10;99.90
8684;DHT22;4379;59.744;18.206;2023-12-07T13:21:54;-3.10;99.90
8684;DHT22;4379;59.744;18.206;2023-12-07T13:24:21;-3.00;99.90
8684;DHT22;4379;59.744;18.206;2023-12-07T13:26:48;-2.90;99.90
8684;DHT22;4379;59.744;18.206;2023-12-07T13:29:15;-3.00;99.90
8684;DHT22;4379;59.744;18.206;2023-12-07T13:31:54;-3.00;99.90
8684;DHT22;4379;59.744;18.206;2023-12-07T13:34:21;-3.00;99.90
8684;DHT22;4379;59.744;18.206;2023-12-07T13:36:50;-3.10;99.90
8684;DHT22;4379;59.744;18.206;2023-12-07T13:39:17;-3.00;99.90
8684;DHT22;4379;59.744;18.206;2023-12-07T13:41:57;-3.00;99.90
8684;DHT22;4379;59.744;18.206;2023-12-07T13:44:25;-3.00;99.90
8684;DHT22;4379;59.744;18.206;2023-12-07T13:46:55;-3.00;99.90
8684;DHT22;4379;59.744;18.206;2023-12-07T13:49:24;-3.00;99.90
8684;DHT22;4379;59.744;18.206;2023-12-07T13:52:02;-3.00;99.90
8684;DHT22;4379;59.744;18.206;2023-12-07T13:54:38;-3.00;99.90
8684;DHT22;4379;59.744;18.206;2023-12-07T13:57:23;-3.00;99.90
8684;DHT22;4379;59.744;18.206;2023-12-07T13:59:54;-2.90;99.90
8684;DHT22;4379;59.744;18.206;2023-12-07T14:02:22;-3.00;99.90
8684;DHT22;4379;59.744;18.206;2023-12-07T14:04:49;-2.90;99.90
8684;DHT22;4379;59.744;18.206;2023-12-07T14:07:19;-2.80;99.90
8684;DHT22;4379;59.744;18.206;2023-12-07T14:09:50;-2.70;99.90
8684;DHT22;4379;59.744;18.206;2023-12-07T14:12:25;-2.70;99.90
8684;DHT22;4379;59.744;18.206;2023-12-07T14:14:56;-2.80;99.90
8684;DHT22;4379;59.744;18.206;2023-12-07T14:17:24;-2.70;99.90
8684;DHT22;4379;59.744;18.206;2023-12-07T14:19:54;-2.70;99.90
8684;DHT22;4379;59.744;18.206;2023-12-07T14:22:36;-2.70;99.90
8684;DHT22;4379;59.744;18.206;2023-12-07T14:25:04;-2.70;99.90
8684;DHT22;4379;59.744;18.206;2023-12-07T14:27:31;-2.60;99.90
8684;DHT22;4379;59.744;18.206;2023-12-07T14:29:58;-2.70;99.90
8684;DHT22;4379;59.744;18.206;2023-12-07T14:32:25;-2.70;99.90
8684;DHT22;4379;59.744;18.206;2023-12-07T14:34:53;-2.80;99.90
8684;DHT22;4379;59.744;18.206;2023-12-07T14:37:21;-2.80;99.90
8684;DHT22;4379;59.744;18.206;2023-12-07T14:39:48;-2.80;99.90
8684;DHT22;4379;59.744;18.206;2023-12-07T14:42:15;-2.70;99.90
8684;DHT22;4379;59.744;18.206;2023-12-07T14:44:43;-2.70;99.90
8684;DHT22;4379;59.744;18.206;2023-12-07T14:47:10;-2.60;99.90
8684;DHT22;4379;59.744;18.206;2023-12-07T14:49:37;-2.60;99.90
8684;DHT22;4379;59.744;18.206;2023-12-07T14:52:04;-2.50;99.90
8684;DHT22;4379;59.744;18.206;2023-12-07T14:54:32;-2.40;99.90
8684;DHT22;4379;59.744;18.206;2023-12-07T14:56:59;-2.40;99.90
8684;DHT22;4379;59.744;18.206;2023-12-07T14:59:28;-2.50;99.90
8684;DHT22;4379;59.744;18.206;2023-12-07T15:01:55;-2.50;99.90
8684;DHT22;4379;59.744;18.206;2023-12-07T15:04:22;-2.40;99.90
8684;DHT22;4379;59.744;18.206;2023-12-07T15:07:00;-2.40;99.90
8684;DHT22;4379;59.744;18.206;2023-12-07T15:09:27;-2.30;99.90
8684;DHT22;4379;59.744;18.206;2023-12-07T15:11:57;-2.40;99.90
8684;DHT22;4379;59.744;18.206;2023-12-07T15:14:25;-2.30;99.90
8684;DHT22;4379;59.744;18.206;2023-12-07T15:17:04;-2.40;99.90
8684;DHT22;4379;59.744;18.206;2023-12-07T15:19:33;-2.30;99.90
8684;DHT22;4379;59.744;18.206;2023-12-07T15:22:01;-2.30;99.90
8684;DHT22;4379;59.744;18.206;2023-12-07T15:24:28;-2.30;99.90
8684;DHT22;4379;59.744;18.206;2023-12-07T15:27:05;-2.40;99.90
8684;DHT22;4379;59.744;18.206;2023-12-07T15:29:32;-2.40;99.90
8684;DHT22;4379;59.744;18.206;2023-12-07T15:32:06;-2.40;99.90
8684;DHT22;4379;59.744;18.206;2023-12-07T15:34:34;-2.30;99.90
8684;DHT22;4379;59.744;18.206;2023-12-07T15:37:10;-2.30;99.90
8684;DHT22;4379;59.744;18.206;2023-12-07T15:39:40;-2.40;99.90
8684;DHT22;4379;59.744;18.206;2023-12-07T15:42:10;-2.40;99.90
8684;DHT22;4379;59.744;18.206;2023-12-07T15:44:41;-2.40;99.90
8684;DHT22;4379;59.744;18.206;2023-12-07T15:47:09;-2.50;99.90
8684;DHT22;4379;59.744;18.206;2023-12-07T15:49:37;-2.40;99.90
8684;DHT22;4379;59.744;18.206;2023-12-07T15:52:04;-2.40;99.90
8684;DHT22;4379;59.744;18.206;2023-12-07T15:54:32;-2.40;99.90
8684;DHT22;4379;59.744;18.206;2023-12-07T15:57:07;-2.30;99.90
8684;DHT22;4379;59.744;18.206;2023-12-07T15:59:36;-2.20;99.90
8684;DHT22;4379;59.744;18.206;2023-12-07T16:02:04;-2.10;99.90
8684;DHT22;4379;59.744;18.206;2023-12-07T16:04:31;-2.20;99.90